sensor_id;sensor_type;location;lat;lon;timestamp;P1;durP1;ratioP1;P2;durP2;ratioP2
21743;SDS011;11034;48.556;9.342;2023-10-19T00:01:09;4.97;;;3.88;;
21743;SDS011;11034;48.556;9.342;2023-10-19T00:03:38;5.03;;;4.15;;
21743;SDS011;11034;48.556;9.342;2023-10-19T00:06:05;6.88;;;3.50;;
21743;SDS011;11034;48.556;9.342;2023-10-19T00:08:33;5.43;;;3.50;;
21743;SDS011;11034;48.556;9.342;2023-10-19T00:11:08;3.85;;;3.30;;
21743;SDS011;11034;48.556;9.342;2023-10-19T00:13:47;4.10;;;3.20;;
21743;SDS011;11034;48.556;9.342;2023-10-19T00:16:17;3.92;;;3.20;;
21743;SDS011;11034;48.556;9.342;2023-10-19T00:18:53;5.38;;;2.90;;
21743;SDS011;11034;48.556;9.342;2023-10-19T00:21:20;5.03;;;3.17;;
21743;SDS011;11034;48.556;9.342;2023-10-19T00:23:51;4.40;;;3.08;;
21743;SDS011;11034;48.556;9.342;2023-10-19T00:26:22;6.10;;;2.90;;
21743;SDS011;11034;48.556;9.342;2023-10-19T00:28:55;4.78;;;3.00;;
21743;SDS011;11034;48.556;9.342;2023-10-19T00:31:26;3.15;;;2.40;;
21743;SDS011;11034;48.556;9.342;2023-10-19T00:33:55;5.32;;;2.95;;
21743;SDS011;11034;48.556;9.342;2023-10-19T00:36:23;5.50;;;2.70;;
21743;SDS011;11034;48.556;9.342;2023-10-19T00:38:52;4.30;;;2.67;;
21743;SDS011;11034;48.556;9.342;2023-10-19T00:41:23;3.88;;;2.47;;
21743;SDS011;11034;48.556;9.342;2023-10-19T00:43:56;6.78;;;2.60;;
21743;SDS011;11034;48.556;9.342;2023-10-19T00:46:31;6.95;;;2.60;;
21743;SDS011;11034;48.556;9.342;2023-10-19T00:49:04;3.83;;;2.45;;
21743;SDS011;11034;48.556;9.342;2023-10-19T00:51:37;4.03;;;2.80;;
21743;SDS011;11034;48.556;9.342;2023-10-19T00:54:16;5.70;;;2.40;;
21743;SDS011;11034;48.556;9.342;2023-10-19T00:56:52;7.28;;;2.55;;
21743;SDS011;11034;48.556;9.342;2023-10-19T00:59:22;4.60;;;2.60;;
21743;SDS011;11034;48.556;9.342;2023-10-19T01:01:52;8.07;;;2.72;;
21743;SDS011;11034;48.556;9.342;2023-10-19T01:04:24;6.38;;;2.60;;
21743;SDS011;11034;48.556;9.342;2023-10-19T01:06:59;7.57;;;2.90;;
21743;SDS011;11034;48.556;9.342;2023-10-19T01:09:31;6.50;;;2.60;;
21743;SDS011;11034;48.556;9.342;2023-10-19T01:12:01;7.25;;;2.80;;
21743;SDS011;11034;48.556;9.342;2023-10-19T01:14:37;6.85;;;2.50;;
21743;SDS011;11034;48.556;9.342;2023-10-19T01:17:08;6.85;;;2.60;;
21743;SDS011;11034;48.556;9.342;2023-10-19T01:19:37;5.53;;;2.80;;
21743;SDS011;11034;48.556;9.342;2023-10-19T01:22:07;3.92;;;2.60;;
21743;SDS011;11034;48.556;9.342;2023-10-19T01:24:44;5.13;;;2.97;;
21743;SDS011;11034;48.556;9.342;2023-10-19T01:27:12;10.30;;;3.40;;
21743;SDS011;11034;48.556;9.342;2023-10-19T01:29:41;10.55;;;3.15;;
21743;SDS011;11034;48.556;9.342;2023-10-19T01:32:10;10.95;;;3.33;;
21743;SDS011;11034;48.556;9.342;2023-10-19T01:34:41;7.03;;;3.28;;
21743;SDS011;11034;48.556;9.342;2023-10-19T01:37:09;5.43;;;3.33;;
21743;SDS011;11034;48.556;9.342;2023-10-19T01:39:38;7.13;;;3.20;;
21743;SDS011;11034;48.556;9.342;2023-10-19T01:42:13;5.95;;;2.80;;
21743;SDS011;11034;48.556;9.342;2023-10-19T01:44:41;9.25;;;3.35;;
21743;SDS011;11034;48.556;9.342;2023-10-19T01:47:08;7.05;;;3.20;;
21743;SDS011;11034;48.556;9.342;2023-10-19T01:49:36;5.47;;;2.90;;
21743;SDS011;11034;48.556;9.342;2023-10-19T01:52:04;5.07;;;2.95;;
21743;SDS011;11034;48.556;9.342;2023-10-19T01:54:32;5.28;;;2.60;;
21743;SDS011;11034;48.556;9.342;2023-10-19T01:57:04;6.25;;;2.60;;
21743;SDS011;11034;48.556;9.342;2023-10-19T01:59:36;6.25;;;2.72;;
21743;SDS011;11034;48.556;9.342;2023-10-19T02:02:03;5.72;;;2.50;;
21743;SDS011;11034;48.556;9.342;2023-10-19T02:04:34;8.15;;;2.70;;
21743;SDS011;11034;48.556;9.342;2023-10-19T02:07:02;3.70;;;2.45;;
21743;SDS011;11034;48.556;9.342;2023-10-19T02:09:30;6.70;;;2.75;;
21743;SDS011;11034;48.556;9.342;2023-10-19T02:11:59;4.55;;;2.35;;
21743;SDS011;11034;48.556;9.342;2023-10-19T02:14:31;7.65;;;2.80;;
21743;SDS011;11034;48.556;9.342;2023-10-19T02:17:01;5.38;;;2.72;;
21743;SDS011;11034;48.556;9.342;2023-10-19T02:19:30;6.28;;;2.60;;
21743;SDS011;11034;48.556;9.342;2023-10-19T02:21:59;5.60;;;2.40;;
21743;SDS011;11034;48.556;9.342;2023-10-19T02:24:30;6.05;;;2.30;;
21743;SDS011;11034;48.556;9.342;2023-10-19T02:26:58;5.75;;;2.67;;
21743;SDS011;11034;48.556;9.342;2023-10-19T02:29:27;4.05;;;2.40;;
21743;SDS011;11034;48.556;9.342;2023-10-19T02:31:55;6.80;;;2.50;;
21743;SDS011;11034;48.556;9.342;2023-10-19T02:34:25;6.30;;;2.47;;
21743;SDS011;11034;48.556;9.342;2023-10-19T02:36:52;6.28;;;2.70;;
21743;SDS011;11034;48.556;9.342;2023-10-19T02:39:20;5.07;;;2.50;;
21743;SDS011;11034;48.556;9.342;2023-10-19T02:41:54;9.20;;;2.67;;
21743;SDS011;11034;48.556;9.342;2023-10-19T02:44:23;4.55;;;2.25;;
21743;SDS011;11034;48.556;9.342;2023-10-19T02:46:52;7.07;;;2.42;;
21743;SDS011;11034;48.556;9.342;2023-10-19T02:49:27;6.53;;;2.25;;
21743;SDS011;11034;48.556;9.342;2023-10-19T02:51:56;3.95;;;2.30;;
21743;SDS011;11034;48.556;9.342;2023-10-19T02:54:30;5.85;;;2.05;;
21743;SDS011;11034;48.556;9.342;2023-10-19T02:57:00;4.57;;;2.25;;
21743;SDS011;11034;48.556;9.342;2023-10-19T02:59:33;4.20;;;2.22;;
21743;SDS011;11034;48.556;9.342;2023-10-19T03:02:00;6.97;;;2.60;;
21743;SDS011;11034;48.556;9.342;2023-10-19T03:04:35;8.65;;;2.78;;
21743;SDS011;11034;48.556;9.342;2023-10-19T03:07:02;4.68;;;2.40;;
21743;SDS011;11034;48.556;9.342;2023-10-19T03:09:31;4.28;;;2.30;;
21743;SDS011;11034;48.556;9.342;2023-10-19T03:12:03;8.93;;;2.67;;
21743;SDS011;11034;48.556;9.342;2023-10-19T03:14:35;3.53;;;2.40;;
21743;SDS011;11034;48.556;9.342;2023-10-19T03:17:04;6.22;;;2.53;;
21743;SDS011;11034;48.556;9.342;2023-10-19T03:19:36;6.45;;;2.60;;
21743;SDS011;11034;48.556;9.342;2023-10-19T03:22:05;5.88;;;2.78;;
21743;SDS011;11034;48.556;9.342;2023-10-19T03:24:36;6.57;;;2.50;;
21743;SDS011;11034;48.556;9.342;2023-10-19T03:27:07;6.65;;;3.20;;
21743;SDS011;11034;48.556;9.342;2023-10-19T03:29:39;5.88;;;2.78;;
21743;SDS011;11034;48.556;9.342;2023-10-19T03:32:12;3.70;;;2.38;;
21743;SDS011;11034;48.556;9.342;2023-10-19T03:34:43;8.25;;;3.08;;
21743;SDS011;11034;48.556;9.342;2023-10-19T03:37:17;4.68;;;2.60;;
21743;SDS011;11034;48.556;9.342;2023-10-19T03:39:46;4.45;;;2.80;;
21743;SDS011;11034;48.556;9.342;2023-10-19T03:42:15;4.22;;;2.15;;
21743;SDS011;11034;48.556;9.342;2023-10-19T03:44:43;6.35;;;2.40;;
21743;SDS011;11034;48.556;9.342;2023-10-19T03:47:19;3.25;;;2.20;;
21743;SDS011;11034;48.556;9.342;2023-10-19T03:49:55;4.97;;;2.28;;
21743;SDS011;11034;48.556;9.342;2023-10-19T03:52:26;4.72;;;2.50;;
21743;SDS011;11034;48.556;9.342;2023-10-19T03:54:56;4.80;;;2.55;;
21743;SDS011;11034;48.556;9.342;2023-10-19T03:57:25;5.03;;;2.40;;
21743;SDS011;11034;48.556;9.342;2023-10-19T03:59:56;5.75;;;2.70;;
21743;SDS011;11034;48.556;9.342;2023-10-19T04:02:26;3.35;;;2.42;;
21743;SDS011;11034;48.556;9.342;2023-10-19T04:04:57;4.20;;;2.50;;
21743;SDS011;11034;48.556;9.342;2023-10-19T04:07:27;4.88;;;2.78;;
21743;SDS011;11034;48.556;9.342;2023-10-19T04:09:58;4.32;;;2.80;;
21743;SDS011;11034;48.556;9.342;2023-10-19T04:12:37;5.65;;;2.60;;
21743;SDS011;11034;48.556;9.342;2023-10-19T04:15:09;6.57;;;2.50;;
21743;SDS011;11034;48.556;9.342;2023-10-19T04:17:38;4.63;;;2.60;;
21743;SDS011;11034;48.556;9.342;2023-10-19T04:20:11;4.13;;;2.20;;
21743;SDS011;11034;48.556;9.342;2023-10-19T04:22:55;4.57;;;2.30;;
21743;SDS011;11034;48.556;9.342;2023-10-19T04:25:25;4.50;;;2.00;;
21743;SDS011;11034;48.556;9.342;2023-10-19T04:27:53;5.00;;;2.35;;
21743;SDS011;11034;48.556;9.342;2023-10-19T04:30:24;7.18;;;2.08;;
21743;SDS011;11034;48.556;9.342;2023-10-19T04:32:53;5.78;;;2.20;;
21743;SDS011;11034;48.556;9.342;2023-10-19T04:35:26;3.13;;;2.05;;
21743;SDS011;11034;48.556;9.342;2023-10-19T04:37:57;5.40;;;2.10;;
21743;SDS011;11034;48.556;9.342;2023-10-19T04:40:26;3.70;;;2.08;;
21743;SDS011;11034;48.556;9.342;2023-10-19T04:42:55;3.92;;;2.10;;
21743;SDS011;11034;48.556;9.342;2023-10-19T04:45:23;4.25;;;2.20;;
21743;SDS011;11034;48.556;9.342;2023-10-19T04:47:51;4.55;;;2.00;;
21743;SDS011;11034;48.556;9.342;2023-10-19T04:50:21;2.97;;;2.10;;
21743;SDS011;11034;48.556;9.342;2023-10-19T04:52:51;5.20;;;3.38;;
21743;SDS011;11034;48.556;9.342;2023-10-19T05:03:32;9.70;;;5.82;;
21743;SDS011;11034;48.556;9.342;2023-10-19T05:06:01;8.75;;;5.95;;
21743;SDS011;11034;48.556;9.342;2023-10-19T05:08:31;6.63;;;3.50;;
21743;SDS011;11034;48.556;9.342;2023-10-19T05:11:03;6.30;;;3.30;;
21743;SDS011;11034;48.556;9.342;2023-10-19T05:13:31;4.55;;;2.55;;
21743;SDS011;11034;48.556;9.342;2023-10-19T05:16:03;3.90;;;2.30;;
21743;SDS011;11034;48.556;9.342;2023-10-19T05:18:32;4.95;;;2.63;;
21743;SDS011;11034;48.556;9.342;2023-10-19T05:23:44;4.10;;;2.70;;
21743;SDS011;11034;48.556;9.342;2023-10-19T05:26:12;6.40;;;4.03;;
21743;SDS011;11034;48.556;9.342;2023-10-19T05:28:43;2.55;;;1.80;;
21743;SDS011;11034;48.556;9.342;2023-10-19T05:31:13;3.50;;;2.00;;
21743;SDS011;11034;48.556;9.342;2023-10-19T05:33:42;3.90;;;2.03;;
21743;SDS011;11034;48.556;9.342;2023-10-19T05:36:10;3.95;;;2.22;;
21743;SDS011;11034;48.556;9.342;2023-10-19T05:38:41;4.03;;;2.05;;
21743;SDS011;11034;48.556;9.342;2023-10-19T05:41:15;4.13;;;2.00;;
21743;SDS011;11034;48.556;9.342;2023-10-19T05:43:45;3.00;;;1.77;;
21743;SDS011;11034;48.556;9.342;2023-10-19T05:46:13;3.45;;;1.48;;
21743;SDS011;11034;48.556;9.342;2023-10-19T05:48:45;4.40;;;1.83;;
21743;SDS011;11034;48.556;9.342;2023-10-19T05:51:13;3.55;;;1.70;;
21743;SDS011;11034;48.556;9.342;2023-10-19T05:53:41;3.55;;;1.90;;
21743;SDS011;11034;48.556;9.342;2023-10-19T05:56:10;12.52;;;7.85;;
21743;SDS011;11034;48.556;9.342;2023-10-19T05:58:40;10.65;;;7.32;;
21743;SDS011;11034;48.556;9.342;2023-10-19T06:01:08;5.05;;;1.92;;
21743;SDS011;11034;48.556;9.342;2023-10-19T06:03:36;3.80;;;3.38;;
21743;SDS011;11034;48.556;9.342;2023-10-19T06:06:05;2.80;;;1.92;;
21743;SDS011;11034;48.556;9.342;2023-10-19T06:08:33;4.65;;;2.78;;
21743;SDS011;11034;48.556;9.342;2023-10-19T06:11:03;4.07;;;2.50;;
21743;SDS011;11034;48.556;9.342;2023-10-19T06:13:33;4.15;;;2.10;;
21743;SDS011;11034;48.556;9.342;2023-10-19T06:16:03;5.05;;;1.83;;
21743;SDS011;11034;48.556;9.342;2023-10-19T06:18:32;2.17;;;1.63;;
21743;SDS011;11034;48.556;9.342;2023-10-19T06:21:00;8.55;;;6.13;;
21743;SDS011;11034;48.556;9.342;2023-10-19T06:23:29;3.72;;;2.65;;
21743;SDS011;11034;48.556;9.342;2023-10-19T06:25:57;2.33;;;1.20;;
21743;SDS011;11034;48.556;9.342;2023-10-19T06:28:30;4.15;;;3.58;;
21743;SDS011;11034;48.556;9.342;2023-10-19T06:31:00;3.33;;;1.50;;
21743;SDS011;11034;48.556;9.342;2023-10-19T06:33:31;4.15;;;1.65;;
21743;SDS011;11034;48.556;9.342;2023-10-19T06:35:59;3.53;;;1.80;;
21743;SDS011;11034;48.556;9.342;2023-10-19T06:38:29;4.40;;;2.00;;
21743;SDS011;11034;48.556;9.342;2023-10-19T06:40:58;4.70;;;3.10;;
21743;SDS011;11034;48.556;9.342;2023-10-19T06:43:29;6.20;;;4.30;;
21743;SDS011;11034;48.556;9.342;2023-10-19T06:45:59;4.40;;;2.20;;
21743;SDS011;11034;48.556;9.342;2023-10-19T06:48:29;2.60;;;2.15;;
21743;SDS011;11034;48.556;9.342;2023-10-19T06:50:57;5.88;;;2.78;;
21743;SDS011;11034;48.556;9.342;2023-10-19T06:53:26;3.75;;;3.00;;
21743;SDS011;11034;48.556;9.342;2023-10-19T06:55:54;4.88;;;2.70;;
21743;SDS011;11034;48.556;9.342;2023-10-19T06:58:23;3.53;;;2.53;;
21743;SDS011;11034;48.556;9.342;2023-10-19T07:00:52;4.90;;;2.22;;
21743;SDS011;11034;48.556;9.342;2023-10-19T07:03:26;3.13;;;1.90;;
21743;SDS011;11034;48.556;9.342;2023-10-19T07:05:57;5.13;;;2.53;;
21743;SDS011;11034;48.556;9.342;2023-10-19T07:08:26;6.65;;;2.67;;
21743;SDS011;11034;48.556;9.342;2023-10-19T07:10:54;3.35;;;2.20;;
21743;SDS011;11034;48.556;9.342;2023-10-19T07:13:26;5.55;;;2.30;;
21743;SDS011;11034;48.556;9.342;2023-10-19T07:15:57;6.20;;;2.83;;
21743;SDS011;11034;48.556;9.342;2023-10-19T07:18:26;3.53;;;2.13;;
21743;SDS011;11034;48.556;9.342;2023-10-19T07:20:58;3.10;;;2.00;;
21743;SDS011;11034;48.556;9.342;2023-10-19T07:23:30;3.30;;;2.03;;
21743;SDS011;11034;48.556;9.342;2023-10-19T07:26:04;3.22;;;2.00;;
21743;SDS011;11034;48.556;9.342;2023-10-19T07:28:32;5.60;;;2.28;;
21743;SDS011;11034;48.556;9.342;2023-10-19T07:31:04;4.50;;;2.55;;
21743;SDS011;11034;48.556;9.342;2023-10-19T07:33:39;4.35;;;2.78;;
21743;SDS011;11034;48.556;9.342;2023-10-19T07:36:13;3.10;;;2.10;;
21743;SDS011;11034;48.556;9.342;2023-10-19T07:38:41;3.03;;;2.08;;
21743;SDS011;11034;48.556;9.342;2023-10-19T07:41:12;3.05;;;2.17;;
21743;SDS011;11034;48.556;9.342;2023-10-19T07:43:40;3.90;;;1.55;;
21743;SDS011;11034;48.556;9.342;2023-10-19T07:46:08;3.70;;;1.27;;
21743;SDS011;11034;48.556;9.342;2023-10-19T07:48:38;3.00;;;1.50;;
21743;SDS011;11034;48.556;9.342;2023-10-19T07:51:07;3.30;;;1.55;;
21743;SDS011;11034;48.556;9.342;2023-10-19T07:53:39;2.05;;;1.30;;
21743;SDS011;11034;48.556;9.342;2023-10-19T07:56:07;3.15;;;1.50;;
21743;SDS011;11034;48.556;9.342;2023-10-19T07:58:35;1.42;;;1.10;;
21743;SDS011;11034;48.556;9.342;2023-10-19T08:01:03;1.88;;;1.15;;
21743;SDS011;11034;48.556;9.342;2023-10-19T08:03:32;3.05;;;1.00;;
21743;SDS011;11034;48.556;9.342;2023-10-19T08:06:01;2.03;;;1.00;;
21743;SDS011;11034;48.556;9.342;2023-10-19T08:08:32;1.83;;;0.90;;
21743;SDS011;11034;48.556;9.342;2023-10-19T08:11:03;1.98;;;1.00;;
21743;SDS011;11034;48.556;9.342;2023-10-19T08:13:32;1.55;;;1.00;;
21743;SDS011;11034;48.556;9.342;2023-10-19T08:16:00;9.63;;;3.55;;
21743;SDS011;11034;48.556;9.342;2023-10-19T08:18:30;6.65;;;2.95;;
21743;SDS011;11034;48.556;9.342;2023-10-19T08:20:58;6.90;;;3.60;;
21743;SDS011;11034;48.556;9.342;2023-10-19T08:23:26;8.05;;;3.85;;
21743;SDS011;11034;48.556;9.342;2023-10-19T08:25:55;7.63;;;3.40;;
21743;SDS011;11034;48.556;9.342;2023-10-19T08:28:25;5.70;;;3.50;;
21743;SDS011;11034;48.556;9.342;2023-10-19T08:30:54;4.60;;;3.33;;
21743;SDS011;11034;48.556;9.342;2023-10-19T08:33:27;6.78;;;4.00;;
21743;SDS011;11034;48.556;9.342;2023-10-19T08:35:56;6.03;;;3.88;;
21743;SDS011;11034;48.556;9.342;2023-10-19T08:38:26;4.60;;;3.67;;
21743;SDS011;11034;48.556;9.342;2023-10-19T08:40:55;5.88;;;4.55;;
21743;SDS011;11034;48.556;9.342;2023-10-19T08:43:26;6.47;;;4.60;;
21743;SDS011;11034;48.556;9.342;2023-10-19T08:45:54;9.23;;;4.70;;
21743;SDS011;11034;48.556;9.342;2023-10-19T08:48:23;10.13;;;4.88;;
21743;SDS011;11034;48.556;9.342;2023-10-19T08:50:52;6.93;;;4.63;;
21743;SDS011;11034;48.556;9.342;2023-10-19T08:53:22;11.23;;;5.32;;
21743;SDS011;11034;48.556;9.342;2023-10-19T08:55:51;5.97;;;5.30;;
21743;SDS011;11034;48.556;9.342;2023-10-19T08:58:21;9.38;;;5.25;;
21743;SDS011;11034;48.556;9.342;2023-10-19T09:00:51;12.60;;;6.15;;
21743;SDS011;11034;48.556;9.342;2023-10-19T09:03:22;8.35;;;5.30;;
21743;SDS011;11034;48.556;9.342;2023-10-19T09:05:53;7.47;;;4.90;;
21743;SDS011;11034;48.556;9.342;2023-10-19T09:08:23;8.88;;;4.68;;
21743;SDS011;11034;48.556;9.342;2023-10-19T09:10:51;7.30;;;4.30;;
21743;SDS011;11034;48.556;9.342;2023-10-19T09:13:21;87.35;;;36.80;;
21743;SDS011;11034;48.556;9.342;2023-10-19T09:15:53;7.40;;;5.25;;
21743;SDS011;11034;48.556;9.342;2023-10-19T09:18:23;17.70;;;16.20;;
21743;SDS011;11034;48.556;9.342;2023-10-19T09:20:55;23.85;;;22.17;;
21743;SDS011;11034;48.556;9.342;2023-10-19T09:23:34;9.68;;;7.57;;
21743;SDS011;11034;48.556;9.342;2023-10-19T09:26:04;7.57;;;6.68;;
21743;SDS011;11034;48.556;9.342;2023-10-19T09:28:42;6.22;;;3.60;;
21743;SDS011;11034;48.556;9.342;2023-10-19T09:31:11;11.63;;;6.70;;
21743;SDS011;11034;48.556;9.342;2023-10-19T09:33:40;13.57;;;9.13;;
21743;SDS011;11034;48.556;9.342;2023-10-19T09:36:12;35.40;;;18.15;;
21743;SDS011;11034;48.556;9.342;2023-10-19T09:38:44;15.38;;;8.88;;
21743;SDS011;11034;48.556;9.342;2023-10-19T09:41:15;14.35;;;8.18;;
21743;SDS011;11034;48.556;9.342;2023-10-19T09:43:45;10.38;;;5.50;;
21743;SDS011;11034;48.556;9.342;2023-10-19T09:46:20;13.00;;;11.27;;
21743;SDS011;11034;48.556;9.342;2023-10-19T09:48:49;15.13;;;13.88;;
21743;SDS011;11034;48.556;9.342;2023-10-19T09:51:18;14.23;;;12.70;;
21743;SDS011;11034;48.556;9.342;2023-10-19T09:53:48;9.57;;;6.20;;
21743;SDS011;11034;48.556;9.342;2023-10-19T09:56:24;5.85;;;4.25;;
21743;SDS011;11034;48.556;9.342;2023-10-19T09:58:57;11.00;;;4.00;;
21743;SDS011;11034;48.556;9.342;2023-10-19T10:01:42;5.82;;;3.53;;
21743;SDS011;11034;48.556;9.342;2023-10-19T10:04:32;5.65;;;3.53;;
21743;SDS011;11034;48.556;9.342;2023-10-19T10:07:02;7.22;;;3.92;;
21743;SDS011;11034;48.556;9.342;2023-10-19T10:09:34;15.90;;;14.63;;
21743;SDS011;11034;48.556;9.342;2023-10-19T10:12:16;12.10;;;10.75;;
21743;SDS011;11034;48.556;9.342;2023-10-19T10:14:57;8.57;;;5.35;;
21743;SDS011;11034;48.556;9.342;2023-10-19T10:17:30;6.47;;;5.05;;
21743;SDS011;11034;48.556;9.342;2023-10-19T10:23:17;1999.90;;;999.90;;
21743;SDS011;11034;48.556;9.342;2023-10-19T10:25:51;7.03;;;4.05;;
21743;SDS011;11034;48.556;9.342;2023-10-19T10:28:20;8.32;;;4.10;;
21743;SDS011;11034;48.556;9.342;2023-10-19T10:33:54;5.80;;;4.07;;
21743;SDS011;11034;48.556;9.342;2023-10-19T10:36:22;6.57;;;4.40;;
21743;SDS011;11034;48.556;9.342;2023-10-19T10:38:53;165.18;;;15.07;;
21743;SDS011;11034;48.556;9.342;2023-10-19T10:41:31;152.85;;;57.78;;
21743;SDS011;11034;48.556;9.342;2023-10-19T10:43:59;9.13;;;4.82;;
21743;SDS011;11034;48.556;9.342;2023-10-19T10:46:27;589.00;;;135.50;;
21743;SDS011;11034;48.556;9.342;2023-10-19T10:49:08;1999.90;;;999.90;;
21743;SDS011;11034;48.556;9.342;2023-10-19T10:51:39;1999.90;;;999.90;;
21743;SDS011;11034;48.556;9.342;2023-10-19T10:54:08;1999.90;;;999.90;;
21743;SDS011;11034;48.556;9.342;2023-10-19T10:56:39;1999.90;;;999.90;;
21743;SDS011;11034;48.556;9.342;2023-10-19T10:59:17;1999.90;;;999.90;;
21743;SDS011;11034;48.556;9.342;2023-10-19T11:01:46;1999.90;;;999.90;;
21743;SDS011;11034;48.556;9.342;2023-10-19T11:04:16;1999.90;;;999.90;;
21743;SDS011;11034;48.556;9.342;2023-10-19T11:06:51;1999.90;;;999.90;;
21743;SDS011;11034;48.556;9.342;2023-10-19T11:09:21;1999.90;;;999.90;;
21743;SDS011;11034;48.556;9.342;2023-10-19T11:11:50;1999.90;;;999.90;;
21743;SDS011;11034;48.556;9.342;2023-10-19T11:14:20;1999.90;;;999.90;;
21743;SDS011;11034;48.556;9.342;2023-10-19T11:16:51;1999.90;;;999.90;;
21743;SDS011;11034;48.556;9.342;2023-10-19T11:19:38;1999.90;;;999.90;;
21743;SDS011;11034;48.556;9.342;2023-10-19T11:22:10;1999.90;;;999.90;;
21743;SDS011;11034;48.556;9.342;2023-10-19T11:24:38;1999.90;;;999.90;;
21743;SDS011;11034;48.556;9.342;2023-10-19T11:27:15;1999.90;;;999.90;;
21743;SDS011;11034;48.556;9.342;2023-10-19T11:33:35;1999.90;;;999.90;;
21743;SDS011;11034;48.556;9.342;2023-10-19T11:36:31;1999.90;;;999.90;;
21743;SDS011;11034;48.556;9.342;2023-10-19T11:39:04;1999.90;;;999.90;;
21743;SDS011;11034;48.556;9.342;2023-10-19T11:42:13;1999.90;;;999.90;;
21743;SDS011;11034;48.556;9.342;2023-10-19T11:46:55;1999.90;;;999.90;;
21743;SDS011;11034;48.556;9.342;2023-10-19T12:00:22;1999.90;;;999.90;;
21743;SDS011;11034;48.556;9.342;2023-10-19T12:03:06;1999.90;;;999.90;;
21743;SDS011;11034;48.556;9.342;2023-10-19T12:06:10;1999.90;;;999.90;;
21743;SDS011;11034;48.556;9.342;2023-10-19T12:09:36;1999.90;;;999.90;;
21743;SDS011;11034;48.556;9.342;2023-10-19T12:12:07;1999.90;;;999.90;;
21743;SDS011;11034;48.556;9.342;2023-10-19T12:15:29;1999.90;;;999.90;;
21743;SDS011;11034;48.556;9.342;2023-10-19T12:17:58;1999.90;;;999.90;;
21743;SDS011;11034;48.556;9.342;2023-10-19T12:22:17;1999.90;;;999.90;;
21743;SDS011;11034;48.556;9.342;2023-10-19T12:23:48;1999.90;;;999.90;;
21743;SDS011;11034;48.556;9.342;2023-10-19T12:26:23;1999.90;;;999.90;;
21743;SDS011;11034;48.556;9.342;2023-10-19T12:29:02;1999.90;;;999.90;;
21743;SDS011;11034;48.556;9.342;2023-10-19T12:32:14;1999.90;;;999.90;;
21743;SDS011;11034;48.556;9.342;2023-10-19T12:35:03;1999.90;;;999.90;;
21743;SDS011;11034;48.556;9.342;2023-10-19T12:37:44;1999.90;;;999.90;;
21743;SDS011;11034;48.556;9.342;2023-10-19T12:40:19;1999.90;;;999.90;;
21743;SDS011;11034;48.556;9.342;2023-10-19T12:43:04;1999.90;;;999.90;;
21743;SDS011;11034;48.556;9.342;2023-10-19T12:45:36;1999.90;;;999.90;;
21743;SDS011;11034;48.556;9.342;2023-10-19T12:48:09;1999.90;;;999.90;;
21743;SDS011;11034;48.556;9.342;2023-10-19T12:50:47;1999.90;;;999.90;;
21743;SDS011;11034;48.556;9.342;2023-10-19T12:53:16;1999.90;;;999.90;;
21743;SDS011;11034;48.556;9.342;2023-10-19T12:55:45;1999.90;;;999.90;;
21743;SDS011;11034;48.556;9.342;2023-10-19T12:58:14;1999.90;;;999.90;;
21743;SDS011;11034;48.556;9.342;2023-10-19T13:00:46;1999.90;;;999.90;;
21743;SDS011;11034;48.556;9.342;2023-10-19T13:03:18;1999.90;;;999.90;;
21743;SDS011;11034;48.556;9.342;2023-10-19T13:05:48;1999.90;;;999.90;;
21743;SDS011;11034;48.556;9.342;2023-10-19T13:08:17;1999.90;;;999.90;;
21743;SDS011;11034;48.556;9.342;2023-10-19T13:10:47;1999.90;;;999.90;;
21743;SDS011;11034;48.556;9.342;2023-10-19T13:13:18;1999.90;;;999.90;;
21743;SDS011;11034;48.556;9.342;2023-10-19T13:15:50;1999.90;;;999.90;;
21743;SDS011;11034;48.556;9.342;2023-10-19T13:18:21;1999.90;;;999.90;;
21743;SDS011;11034;48.556;9.342;2023-10-19T13:20:54;1999.90;;;999.90;;
21743;SDS011;11034;48.556;9.342;2023-10-19T13:23:23;1999.90;;;999.90;;
21743;SDS011;11034;48.556;9.342;2023-10-19T13:25:55;1999.90;;;999.90;;
21743;SDS011;11034;48.556;9.342;2023-10-19T13:28:39;1999.90;;;999.90;;
21743;SDS011;11034;48.556;9.342;2023-10-19T13:31:07;1999.90;;;999.90;;
21743;SDS011;11034;48.556;9.342;2023-10-19T13:33:52;1999.90;;;999.90;;
21743;SDS011;11034;48.556;9.342;2023-10-19T13:36:21;1999.90;;;999.90;;
21743;SDS011;11034;48.556;9.342;2023-10-19T13:38:50;1999.90;;;999.90;;
21743;SDS011;11034;48.556;9.342;2023-10-19T13:41:19;1999.90;;;999.90;;
21743;SDS011;11034;48.556;9.342;2023-10-19T13:43:47;1999.90;;;999.90;;
21743;SDS011;11034;48.556;9.342;2023-10-19T13:46:15;1999.90;;;999.90;;
21743;SDS011;11034;48.556;9.342;2023-10-19T13:48:44;1999.90;;;999.90;;
21743;SDS011;11034;48.556;9.342;2023-10-19T13:51:16;1999.90;;;999.90;;
21743;SDS011;11034;48.556;9.342;2023-10-19T13:53:45;1999.90;;;999.90;;
21743;SDS011;11034;48.556;9.342;2023-10-19T13:56:16;1999.90;;;999.90;;
21743;SDS011;11034;48.556;9.342;2023-10-19T13:58:44;1999.90;;;999.90;;
21743;SDS011;11034;48.556;9.342;2023-10-19T14:01:13;1999.90;;;999.90;;
21743;SDS011;11034;48.556;9.342;2023-10-19T14:03:44;1999.90;;;999.90;;
21743;SDS011;11034;48.556;9.342;2023-10-19T14:06:13;1999.90;;;999.90;;
21743;SDS011;11034;48.556;9.342;2023-10-19T14:08:44;1999.90;;;999.90;;
21743;SDS011;11034;48.556;9.342;2023-10-19T14:11:14;1999.90;;;999.90;;
21743;SDS011;11034;48.556;9.342;2023-10-19T14:13:42;1999.90;;;999.90;;
21743;SDS011;11034;48.556;9.342;2023-10-19T14:16:14;1999.90;;;999.90;;
21743;SDS011;11034;48.556;9.342;2023-10-19T14:18:45;1999.90;;;999.90;;
21743;SDS011;11034;48.556;9.342;2023-10-19T14:21:26;1999.90;;;999.90;;
21743;SDS011;11034;48.556;9.342;2023-10-19T14:24:00;1999.90;;;999.90;;
21743;SDS011;11034;48.556;9.342;2023-10-19T14:26:29;1999.90;;;999.90;;
21743;SDS011;11034;48.556;9.342;2023-10-19T14:29:09;1999.90;;;999.90;;
21743;SDS011;11034;48.556;9.342;2023-10-19T14:31:38;1999.90;;;999.90;;
21743;SDS011;11034;48.556;9.342;2023-10-19T14:34:07;1999.90;;;999.90;;
21743;SDS011;11034;48.556;9.342;2023-10-19T14:39:28;1999.90;;;999.90;;
21743;SDS011;11034;48.556;9.342;2023-10-19T14:42:15;1999.90;;;999.90;;
21743;SDS011;11034;48.556;9.342;2023-10-19T14:44:49;1999.90;;;999.90;;
21743;SDS011;11034;48.556;9.342;2023-10-19T14:47:41;164.07;;;30.80;;
21743;SDS011;11034;48.556;9.342;2023-10-19T14:50:16;5.90;;;3.83;;
21743;SDS011;11034;48.556;9.342;2023-10-19T14:52:46;3.90;;;2.03;;
21743;SDS011;11034;48.556;9.342;2023-10-19T14:55:25;1.98;;;1.60;;
21743;SDS011;11034;48.556;9.342;2023-10-19T14:57:55;2.30;;;1.27;;
21743;SDS011;11034;48.556;9.342;2023-10-19T15:00:26;1.75;;;1.00;;
21743;SDS011;11034;48.556;9.342;2023-10-19T15:03:06;2.58;;;1.08;;
21743;SDS011;11034;48.556;9.342;2023-10-19T15:12:38;2.35;;;1.70;;
21743;SDS011;11034;48.556;9.342;2023-10-19T15:15:07;3.90;;;2.88;;
21743;SDS011;11034;48.556;9.342;2023-10-19T15:17:40;2.20;;;1.88;;
21743;SDS011;11034;48.556;9.342;2023-10-19T15:20:10;4.45;;;2.60;;
21743;SDS011;11034;48.556;9.342;2023-10-19T15:22:41;1.63;;;1.52;;
21743;SDS011;11034;48.556;9.342;2023-10-19T15:25:10;1.52;;;1.20;;
21743;SDS011;11034;48.556;9.342;2023-10-19T15:27:41;3.25;;;1.40;;
21743;SDS011;11034;48.556;9.342;2023-10-19T15:30:10;1.85;;;1.40;;
21743;SDS011;11034;48.556;9.342;2023-10-19T15:32:39;1.95;;;1.50;;
21743;SDS011;11034;48.556;9.342;2023-10-19T15:35:09;3.88;;;2.92;;
21743;SDS011;11034;48.556;9.342;2023-10-19T15:37:38;2.17;;;1.23;;
21743;SDS011;11034;48.556;9.342;2023-10-19T15:40:06;2.17;;;1.15;;
21743;SDS011;11034;48.556;9.342;2023-10-19T15:42:39;1.20;;;1.00;;